createdAt,value
2022-12-08T00:03:14.531Z,97605.50
2022-12-08T00:08:35.164Z,97599.56
2022-12-08T00:13:37.071Z,97603.88
2022-12-08T00:18:38.960Z,97596.06
2022-12-08T00:23:40.825Z,97593.63
2022-12-08T00:28:42.579Z,97598.75
2022-12-08T00:33:44.523Z,97598.75
2022-12-08T00:38:48.440Z,97601.19
2022-12-08T00:43:50.255Z,97584.19
2022-12-08T00:48:52.054Z,97584.19
2022-12-08T00:53:53.798Z,97590.38
2022-12-08T00:58:55.728Z,97587.81
2022-12-08T01:03:57.614Z,97589.56
2022-12-08T01:08:59.349Z,97581.88
2022-12-08T01:14:01.891Z,97592.94
2022-12-08T01:19:04.343Z,97587.94
2022-12-08T01:24:06.771Z,97581.22
2022-12-08T01:29:09.577Z,97575.13
2022-12-08T01:34:12.198Z,97576.88
2022-12-08T01:39:17.017Z,97577.69
2022-12-08T01:44:18.745Z,97567.44
2022-12-08T01:49:35.258Z,97561.50
2022-12-08T01:54:48.456Z,97569.31
2022-12-08T01:59:57.243Z,97559.34
2022-12-08T02:04:59.124Z,97555.16
2022-12-08T02:10:01.401Z,97550.97
2022-12-08T02:15:05.570Z,97544.34
2022-12-08T02:20:38.011Z,97540.97
2022-12-08T02:25:57.686Z,97544.50
2022-12-08T02:31:22.125Z,97540.31
2022-12-08T02:37:00.180Z,97535.31
2022-12-08T02:42:14.906Z,97533.69
2022-12-08T02:47:21.846Z,97530.19
2022-12-08T02:52:23.741Z,97523.31
2022-12-08T02:57:48.921Z,97516.41
2022-12-08T03:03:17.413Z,97507.66
2022-12-08T03:08:19.083Z,97506.56
2022-12-08T03:13:25.930Z,97505.88
2022-12-08T03:18:31.960Z,97502.50
2022-12-08T03:23:37.014Z,97510.22
2022-12-08T03:28:39.732Z,97508.44
2022-12-08T03:33:45.546Z,97504.28
2022-12-08T03:38:53.015Z,97495.91
2022-12-08T03:43:57.404Z,97488.88
2022-12-08T03:48:59.369Z,97478.63
2022-12-08T03:54:01.119Z,97477.69
2022-12-08T03:59:04.660Z,97468.91
2022-12-08T04:04:06.475Z,97474.72
2022-12-08T04:09:08.280Z,97466.06
2022-12-08T04:14:10.103Z,97464.31
2022-12-08T04:19:11.783Z,97463.50
2022-12-08T04:24:13.591Z,97454.06
2022-12-08T04:29:15.875Z,97454.19
2022-12-08T04:34:17.741Z,97446.50
2022-12-08T04:39:19.475Z,97452.72
2022-12-08T04:44:21.180Z,97445.03
2022-12-08T04:49:23.702Z,97451.75
2022-12-08T04:54:25.563Z,97439.75
2022-12-08T04:59:27.372Z,97442.31
2022-12-08T05:04:29.189Z,97442.47
2022-12-08T05:09:31.006Z,97440.03
2022-12-08T05:14:32.841Z,97428.16
2022-12-08T05:19:34.860Z,97428.97
2022-12-08T05:24:37.096Z,97425.59
2022-12-08T05:29:39.009Z,97423.84
2022-12-08T05:34:40.845Z,97423.16
2022-12-08T05:39:42.785Z,97423.31
2022-12-08T05:44:44.897Z,97420.75
2022-12-08T05:49:46.689Z,97412.91
2022-12-08T05:54:48.449Z,97417.09
2022-12-08T05:59:50.292Z,97412.78
2022-12-08T06:04:52.284Z,97416.94
2022-12-08T06:09:54.072Z,97416.94
2022-12-08T06:14:55.876Z,97421.94
2022-12-08T06:19:57.762Z,97427.06
2022-12-08T06:24:59.553Z,97433.16
2022-12-08T06:30:01.359Z,97442.19
2022-12-08T06:35:03.691Z,97437.06
2022-12-08T06:40:06.572Z,97438.66
2022-12-08T06:45:09.340Z,97438.41
2022-12-08T06:50:11.845Z,97446.75
2022-12-08T06:55:29.256Z,97445.00
2022-12-08T07:00:35.759Z,97444.06
2022-12-08T07:05:38.561Z,97443.25
2022-12-08T07:10:40.474Z,97452.56
2022-12-08T07:15:42.347Z,97450.94
2022-12-08T07:20:44.395Z,97458.78
2022-12-08T07:25:46.218Z,97452.16
2022-12-08T07:30:48.208Z,97450.00
2022-12-08T07:35:58.301Z,97444.22
2022-12-08T07:41:01.186Z,97443.53
2022-12-08T07:46:03.088Z,97434.09
2022-12-08T07:51:05.872Z,97442.72
2022-12-08T07:56:08.332Z,97441.13
2022-12-08T08:01:28.653Z,97440.84
2022-12-08T08:06:35.061Z,97435.84
2022-12-08T08:11:37.406Z,97446.63
2022-12-08T08:16:42.197Z,97457.56
2022-12-08T08:21:45.912Z,97449.75
2022-12-08T08:26:48.160Z,97452.03
2022-12-08T08:31:50.167Z,97458.63
2022-12-08T08:36:52.058Z,97457.69
2022-12-08T08:41:53.862Z,97455.13
2022-12-08T08:46:55.772Z,97458.50
2022-12-08T08:51:57.802Z,97445.94
2022-12-08T08:57:00.871Z,97447.72
2022-12-08T09:02:02.887Z,97449.47
2022-12-08T09:07:04.808Z,97457.28
2022-12-08T09:12:07.245Z,97468.34
2022-12-08T09:17:09.352Z,97474.84
2022-12-08T09:22:11.135Z,97472.13
2022-12-08T09:27:13.000Z,97467.69
2022-12-08T09:32:14.857Z,97464.97
2022-12-08T09:37:16.833Z,97454.56
2022-12-08T09:42:44.235Z,97454.41
2022-12-08T09:48:07.727Z,97441.25
2022-12-08T09:53:20.382Z,97434.44
2022-12-08T09:58:42.353Z,97436.53
2022-12-08T10:03:44.568Z,97421.22
2022-12-08T10:09:12.649Z,97420.78
2022-12-08T10:15:05.227Z,97420.59
2022-12-08T10:20:17.046Z,97416.72
2022-12-08T10:25:22.403Z,97413.94
2022-12-08T10:30:24.325Z,97413.44
2022-12-08T10:35:43.835Z,97414.16
2022-12-08T10:40:47.175Z,97403.88
2022-12-08T10:45:49.379Z,97396.53
2022-12-08T10:50:59.127Z,97389.47
2022-12-08T10:56:03.822Z,97395.44
2022-12-08T11:01:13.511Z,97389.56
2022-12-08T11:06:20.009Z,97384.50
2022-12-08T11:11:37.096Z,97384.13
2022-12-08T11:16:42.641Z,97380.25
2022-12-08T11:21:45.031Z,97380.81
2022-12-08T11:26:54.637Z,97367.97
2022-12-08T11:32:12.747Z,97364.16
2022-12-08T11:37:29.913Z,97353.59
2022-12-08T11:42:53.601Z,97347.84
2022-12-08T11:48:24.058Z,97345.63
2022-12-08T11:53:25.841Z,97350.03
2022-12-08T11:58:43.901Z,97340.25
2022-12-08T12:03:58.091Z,97346.41
2022-12-08T12:09:09.491Z,97350.97
2022-12-08T12:14:44.235Z,97343.91
2022-12-08T12:19:49.306Z,97342.28
2022-12-08T12:24:53.165Z,97333.28
2022-12-08T12:29:59.142Z,97334.81
2022-12-08T12:35:02.185Z,97331.75
2022-12-08T12:40:12.024Z,97332.19
2022-12-08T12:45:26.121Z,97327.66
2022-12-08T12:50:34.082Z,97327.00
2022-12-08T12:55:56.044Z,97320.91
2022-12-08T13:01:11.002Z,97321.56
2022-12-08T13:06:25.332Z,97311.94
2022-12-08T13:11:27.478Z,97311.94
2022-12-08T13:16:35.434Z,97302.44
2022-12-08T13:21:39.805Z,97299.59
2022-12-08T13:26:50.005Z,97295.41
2022-12-08T13:31:57.331Z,97296.50
2022-12-08T13:37:11.149Z,97296.81
2022-12-08T13:42:12.980Z,97291.66
2022-12-08T13:47:34.221Z,97290.34
2022-12-08T13:58:05.624Z,97306.75
2022-12-08T14:03:13.078Z,97305.88
2022-12-08T14:09:08.689Z,97302.28
2022-12-08T14:13:57.433Z,97299.63
2022-12-08T14:19:07.321Z,97299.28
2022-12-08T14:24:11.389Z,97302.56
2022-12-08T14:29:46.591Z,97297.88
2022-12-08T14:35:01.096Z,97303.59
2022-12-08T14:40:23.884Z,97300.66
2022-12-08T14:45:25.818Z,97307.16
2022-12-08T14:50:45.249Z,97306.66
2022-12-08T14:55:48.777Z,97311.41
2022-12-08T15:00:54.576Z,97309.28
2022-12-08T15:06:00.652Z,97306.19
2022-12-08T15:11:26.544Z,97312.41
2022-12-08T15:16:32.099Z,97318.66
2022-12-08T15:21:38.302Z,97320.53
2022-12-08T15:26:47.526Z,97320.84
2022-12-08T15:31:50.515Z,97330.66
2022-12-08T15:36:54.850Z,97328.63
2022-12-08T15:41:56.750Z,97327.53
2022-12-08T15:47:00.016Z,97319.41
2022-12-08T15:52:11.163Z,97312.38
2022-12-08T15:57:59.170Z,97322.63
2022-12-08T16:03:13.459Z,97317.63
2022-12-08T16:08:30.137Z,97316.16
2022-12-08T16:13:57.633Z,97315.34
2022-12-08T16:19:02.196Z,97313.75
2022-12-08T16:24:09.027Z,97322.09
2022-12-08T16:29:20.092Z,97319.69
2022-12-08T16:34:21.880Z,97316.47
2022-12-08T16:39:23.714Z,97309.72
2022-12-08T16:44:25.466Z,97313.22
2022-12-08T16:49:27.206Z,97319.97
2022-12-08T16:54:29.640Z,97317.56
2022-12-08T16:59:31.387Z,97313.22
2022-12-08T17:04:34.007Z,97310.00
2022-12-08T17:09:35.820Z,97316.06
2022-12-08T17:14:37.604Z,97322.16
2022-12-08T17:19:39.386Z,97321.34
2022-12-08T17:24:41.422Z,97318.94
2022-12-08T17:29:43.206Z,97324.06
2022-12-08T17:34:45.043Z,97320.84
2022-12-08T17:39:46.833Z,97320.84
2022-12-08T17:44:48.627Z,97318.13
2022-12-08T17:49:50.588Z,97313.50
2022-12-08T17:54:52.680Z,97306.47
2022-12-08T17:59:54.449Z,97317.25
2022-12-08T18:04:56.304Z,97313.59
2022-12-08T18:09:58.045Z,97311.84
2022-12-08T18:14:59.920Z,97312.50
2022-12-08T18:20:01.807Z,97314.13
2022-12-08T18:25:04.771Z,97315.88
2022-12-08T18:30:09.147Z,97315.59
2022-12-08T18:35:11.785Z,97314.50
2022-12-08T18:40:14.111Z,97309.22
2022-12-08T18:45:22.525Z,97311.78
2022-12-08T18:50:24.664Z,97311.78
2022-12-08T18:55:26.503Z,97308.28
2022-12-08T19:00:30.677Z,97316.63
2022-12-08T19:05:32.606Z,97323.38
2022-12-08T19:10:38.102Z,97312.16
2022-12-08T19:15:39.931Z,97322.44
2022-12-08T19:20:41.826Z,97318.91
2022-12-08T19:25:43.710Z,97308.66
2022-12-08T19:30:45.714Z,97312.03
2022-12-08T19:35:52.711Z,97313.63
2022-12-08T19:41:13.168Z,97319.56
2022-12-08T19:46:15.279Z,97314.44
2022-12-08T19:51:17.344Z,97316.06
2022-12-08T19:56:19.064Z,97315.25
2022-12-08T20:01:20.936Z,97319.56
2022-12-08T20:06:24.757Z,97323.75
2022-12-08T20:11:26.618Z,97322.94
2022-12-08T20:16:28.537Z,97326.31
2022-12-08T20:21:30.617Z,97321.34
2022-12-08T20:26:32.410Z,97330.00
2022-12-08T20:31:34.353Z,97325.66
2022-12-08T20:36:36.524Z,97334.16
2022-12-08T20:41:39.375Z,97333.34
2022-12-08T20:46:46.245Z,97339.44
2022-12-08T20:51:51.212Z,97350.66
2022-12-08T20:56:53.164Z,97347.44
2022-12-08T21:01:55.436Z,97345.28
2022-12-08T21:06:57.282Z,97344.78
2022-12-08T21:11:59.190Z,97347.50
2022-12-08T21:17:01.405Z,97343.31
2022-12-08T21:22:03.440Z,97340.88
2022-12-08T21:27:05.316Z,97346.97
2022-12-08T21:32:07.934Z,97350.19
2022-12-08T21:37:10.037Z,97358.84
2022-12-08T21:42:34.077Z,97354.38
2022-12-08T21:47:36.608Z,97357.63
2022-12-08T21:52:39.842Z,97355.03
2022-12-08T21:57:42.806Z,97357.63
2022-12-08T22:02:45.657Z,97354.25
2022-12-08T22:07:47.935Z,97355.72
2022-12-08T22:12:50.155Z,97363.41
2022-12-08T22:17:52.005Z,97359.91
2022-12-08T22:22:53.824Z,97362.31
2022-12-08T22:27:55.593Z,97360.56
2022-12-08T22:32:57.593Z,97366.50
2022-12-08T22:37:59.517Z,97358.00
2022-12-08T22:43:01.713Z,97358.94
2022-12-08T22:48:03.606Z,97353.00
2022-12-08T22:53:06.352Z,97355.41
2022-12-08T22:58:10.903Z,97358.00
2022-12-08T23:03:12.985Z,97357.19
2022-12-08T23:08:16.507Z,97363.94
2022-12-08T23:13:18.882Z,97364.75
2022-12-08T23:18:20.668Z,97363.13
2022-12-08T23:23:22.473Z,97361.38
2022-12-08T23:28:24.353Z,97362.31
2022-12-08T23:33:26.128Z,97363.78
2022-12-08T23:38:28.180Z,97355.28
2022-12-08T23:43:30.057Z,97356.91
2022-12-08T23:48:35.011Z,97352.56
2022-12-08T23:53:37.281Z,97357.69
2022-12-08T23:58:40.248Z,97355.00
